Terminal Aerodrome Forecast
Issued by NWS

Home | Current Version | Previous Version | Text Only | Print | Product List | Glossary On
Versions: 1 2 3 4 5 6 7 8 9 10 11 12 13 14 15 16 17 18 19 20 21
000
FTPA31 PHFO 251126
TAFMDY
TAF
PMDY 251126Z 2512/2612 11008KT P6SM SCT008 OVC080
      TEMPO 2512/2516 BKN008
     FM251800 14007KT P6SM VCSH SCT010 BKN020
     FM260100 VRB05KT P6SM SCT015 BKN035=

USA.gov is the U.S. government's official web portal to all federal, state and local government web resources and services.